ADDS TAF Data INFO
IDs: Format: Raw Decoded Include METARs

Data at: 1026 UTC 16 Aug 2018

KCNY 160953Z AUTO 33007KT 10SM FEW055 BKN100 OVC120 25/07 A3006 RMK AO2 RAB34E44 SLP110 P0000 T02500067

KCNY 160520Z 1606/1706 10003KT P6SM FEW130 BKN200
  FM162000 33007KT P6SM FEW250